Portada
METAR-TAF:

METAR-TAF

Aeroports :

Ghadames, Líbia

latitud: 30-08N, longitud: 009-30E, altitud: 346 m

METAR: manca

Hora: 15:37 (13:37 UTC)

Pronòstic

L'informe es va fer fa 2 hores i 37 minuts, a les 11:00 UTC
Pronòstic vàlid del 31 a les 12 UTC al 01 a les 12 UTC
Vent 10 kt del Nord
Visibilitat 10 km o més
sense núvols per sota de 1500 mi sense presència de cumulonimbus.
Evolucionant progressivament
l' 31 a les 21 UTC al 31 a les 23 UTC
Vent 2 kt amb direcció variable

TAF: HLTD 311100Z 3112/0112 35010KT CAVOK BECMG 3121/3123 VRB02KT

Observacions i pronòstics meteorològics de més de 4000 aeroports (METAR i TAF).

Les estacions disponibles són els punts grocs i vermells al mapa.

Posi el ratolí al punt desitjat per veure el nom de l'estació.

Feu clic per veure les observacions i els pronòstics meteorològics.

Per canviar el mapa: feu clic els botons verds amb una creu de color negre per apropar; al botó verd amb un guió per allunyar la imatge; o en les fletxes verdes per a mapes adjacents.


METAR-TAF: